• Join FlightAware (Why Join?)
  • Login
  • US Flag 
02:30PM EDT


 

Airport Tracker/Info


-or-


 

Live Flight TrackerFlight Track Log ✈ UAL1119 ✈ 13-Jun-2013 ✈ KDEN - MMUN / CUN

Flight Track Log - Related Links

Times and Time Zones

All times are in EDT time to prevent confusion due to time zone crossing. See the UAL1119 flight status page for this flight to view local times or setup timezone preferences in your user account.

Time Position Orientation Groundspeed Altitude Reporting Facility
EDT Latitude Longitude Course Direction KTS MPH feet Rate Location/Type
12:15PM 39.8667 -104.5500 108° East 225 259 7,500  Level Denver TRACON
12:16PM 39.6862 -104.4523 112° Southeast  Level Estimated
12:16PM 39.8333 -104.4667 117° Southeast 271 312 9,200  Level Denver TRACON
12:17PM 39.5984 -104.3423 113° Southeast  Level Estimated
12:17PM 39.8108 -104.3939 112° Southeast 293 337 10,500  Level Denver Center
12:18PM 39.5104 -104.2325 113° Southeast  Level Estimated
12:18PM 39.7689 -104.2781 115° Southeast 333 383 11,900  Level Denver Center
12:19PM 39.4223 -104.1231 113° Southeast  Level Estimated
12:19PM 39.7267 -104.1533 114° Southeast 372 428 14,200  Level Denver Center
12:20PM 39.3341 -104.0139 108° East  Level Estimated
12:20PM 39.6775 -104.0153 115° Southeast 389 448 16,800  Level Denver Center
12:21PM 39.6297 -103.8856 116° Southeast 403 464 18,500 1,980 Climbing Denver Center
12:22PM 39.5753 -103.7389 116° Southeast 412 474 21,000 2,100 Climbing Denver Center
12:23PM 39.5422 -103.6047 108° East 414 476 22,900 1,860 Climbing Denver Center
12:24PM 39.5036 -103.4583 109° East 427 491 24,900 1,680 Climbing Denver Center
12:25PM 39.4647 -103.3094 109° East 436 502 26,500 1,680 Climbing Denver Center
12:26PM 39.4164 -103.1283 109° East 442 509 28,400 1,200 Climbing Denver Center
12:27PM 39.3742 -102.9736 109° East 454 522 29,000 360 Climbing Denver Center
12:28PM 39.3314 -102.8164 109° East 464 534 29,200 540 Climbing Denver Center
12:29PM 39.2914 -102.6675 109° East 463 533 30,200 1,080 Climbing Denver Center
12:30PM 39.2439 -102.4892 109° East 470 541 31,500 1,200 Climbing Denver Center
12:31PM 39.2017 -102.3369 110° East 472 543 32,700 1,140 Climbing Denver Center
12:32PM 39.1525 -102.1600 110° East 470 541 33,900 960 Climbing Denver Center
12:33PM 39.1036 -102.0119 113° Southeast 470 541 34,700 840 Climbing Denver Center
12:34PM 38.9983 -101.8889 138° Southeast 460 529 35,700 1,080 Climbing Denver Center
12:35PM 38.9078 -101.7889 139° Southeast 452 520 37,000 600 Climbing Denver Center
12:36PM 38.8031 -101.6744 140° Southeast 443 510 37,000  Level Denver Center
12:37PM 38.7131 -101.5772 140° Southeast 443 510 37,000  Level Denver Center
12:38PM 38.6086 -101.4647 140° Southeast 440 506 37,000  Level Denver Center
12:39PM 38.5200 -101.3669 139° Southeast 439 505 37,000  Level Denver Center
12:40PM 38.4150 -101.2539 140° Southeast 442 509 37,000  Level Denver Center
12:41PM 38.3244 -101.1567 140° Southeast 443 510 37,000  Level Denver Center
12:42PM 38.2806 -101.1061 138° Southeast 442 509 37,000  Level Kansas City Center
12:43PM 38.1725 -100.9925 140° Southeast 448 516 37,000  Level Kansas City Center
12:44PM 38.0808 -100.8942 140° Southeast 448 516 37,000  Level Kansas City Center
12:45PM 37.9728 -100.7792 140° Southeast 451 519 37,000  Level Kansas City Center
12:46PM 37.8797 -100.6803 140° Southeast 451 519 37,000  Level Kansas City Center
12:47PM 37.7867 -100.5861 141° Southeast 451 519 37,000  Level Kansas City Center
12:48PM 37.6744 -100.4744 142° Southeast 447 514 37,000  Level Kansas City Center
12:49PM 37.5819 -100.3806 141° Southeast 444 511 37,000  Level Kansas City Center
12:50PM 37.4747 -100.2739 142° Southeast 443 510 37,000  Level Kansas City Center
12:51PM 37.3828 -100.1817 141° Southeast 441 507 37,000  Level Kansas City Center
12:52PM 37.2767 -100.0719 141° Southeast 443 510 37,000  Level Kansas City Center
12:53PM 37.1828 -99.9833 143° Southeast 441 507 37,000  Level Kansas City Center
12:54PM 37.0900 -99.8911 142° Southeast 443 510 37,000  Level Kansas City Center
12:55PM 36.9939 -99.7961 142° Southeast 444 511 37,000  Level Kansas City Center
12:56PM 36.8772 -99.6817 142° Southeast 443 510 37,000  Level Kansas City Center
12:57PM 36.7814 -99.5847 141° Southeast 442 509 37,000  Level Kansas City Center
12:58PM 36.6839 -99.4917 143° Southeast 440 506 37,000  Level Kansas City Center
12:59PM 36.5869 -99.3961 142° Southeast 442 509 37,000  Level Kansas City Center
01:01PM 36.4911 -99.3017 142° Southeast 439 505 37,000  Level Kansas City Center
01:02PM 36.3936 -99.2092 143° Southeast 438 504 37,000  Level Kansas City Center
01:03PM 36.2967 -99.1136 142° Southeast 439 505 37,000  Level Kansas City Center
01:04PM 36.1822 -99.0022 142° Southeast 441 507 37,000  Level Kansas City Center
01:05PM 36.0833 -98.9089 143° Southeast 445 512 37,000  Level Kansas City Center
01:06PM 35.9864 -98.8158 142° Southeast 443 510 37,000  Level Kansas City Center
01:07PM 35.8875 -98.7231 143° Southeast 446 513 37,000  Level Kansas City Center
01:08PM 35.7794 -98.6203 142° Southeast 446 513 37,000  Level Kansas City Center
01:09PM 35.6803 -98.5275 143° Southeast 445 512 37,000  Level Kansas City Center
01:10PM 35.5819 -98.4350 143° Southeast 445 512 37,000  Level Kansas City Center
01:11PM 35.4775 -98.3353 142° Southeast 442 509 37,000  Level Kansas City Center
01:11PM 35.4322 -98.2975 146° Southeast 446 513 37,000  Level Fort Worth Center
01:12PM 35.3347 -98.2075 143° Southeast 441 507 37,000  Level Fort Worth Center
01:13PM 35.2269 -98.1075 143° Southeast 441 507 37,000  Level Fort Worth Center
01:14PM 35.1314 -98.0178 142° Southeast 441 507 37,000  Level Fort Worth Center
01:15PM 35.0319 -97.9283 144° Southeast 441 507 37,000  Level Fort Worth Center
01:16PM 34.9342 -97.8364 142° Southeast 441 507 37,000  Level Fort Worth Center
01:17PM 34.8383 -97.7450 142° Southeast 441 507 37,000  Level Fort Worth Center
01:18PM 34.7364 -97.6536 144° Southeast 441 507 37,000  Level Fort Worth Center
01:19PM 34.6386 -97.5650 143° Southeast 441 507 37,000  Level Fort Worth Center
01:20PM 34.5425 -97.4739 142° Southeast 446 513 37,000  Level Fort Worth Center
01:21PM 34.4447 -97.3858 143° Southeast 446 513 37,000  Level Fort Worth Center
01:22PM 34.3444 -97.2953 143° Southeast 446 513 37,000  Level Fort Worth Center
01:23PM 34.2461 -97.2075 144° Southeast 451 519 37,000  Level Fort Worth Center
01:24PM 34.1417 -97.1250 147° Southeast 451 519 37,000  Level Fort Worth Center
01:25PM 34.0372 -97.0450 148° Southeast 451 519 37,000  Level Fort Worth Center
01:26PM 33.9306 -96.9678 149° Southeast 446 513 37,000  Level Fort Worth Center
01:27PM 33.8281 -96.8908 148° Southeast 446 513 37,000  Level Fort Worth Center
01:28PM 33.7233 -96.8117 148° Southeast 446 513 37,000  Level Fort Worth Center
01:29PM 33.6186 -96.7375 149° Southeast 446 513 37,000  Level Fort Worth Center
01:30PM 33.5117 -96.6586 148° Southeast 454 522 37,000  Level Fort Worth Center
01:31PM 33.4172 -96.5897 149° Southeast 447 514 37,000  Level Fort Worth Center
01:32PM 33.2978 -96.5064 150° Southeast 453 521 37,000  Level Fort Worth Center
01:33PM 33.1928 -96.4278 148° Southeast 453 521 37,000  Level Fort Worth Center
01:34PM 33.0942 -96.3572 149° Southeast 453 521 37,000  Level Fort Worth Center
01:35PM 32.9764 -96.2744 149° Southeast 453 521 37,000  Level Fort Worth Center
01:36PM 32.8778 -96.2064 150° Southeast 453 521 37,000  Level Fort Worth Center
01:37PM 32.7578 -96.1214 149° Southeast 447 514 37,000  Level Fort Worth Center
01:38PM 32.6611 -96.0561 150° Southeast 447 514 37,000  Level Fort Worth Center
01:39PM 32.5433 -95.9717 149° Southeast 452 520 37,000  Level Fort Worth Center
01:40PM 32.4444 -95.9117 153° Southeast 452 520 37,000  Level Fort Worth Center
01:41PM 32.3392 -95.8297 147° Southeast 447 514 37,000  Level Fort Worth Center
01:42PM 32.2317 -95.7556 150° Southeast 447 514 37,000  Level Fort Worth Center
01:43PM 32.1222 -95.6864 152° Southeast 447 514 37,000  Level Fort Worth Center
01:44PM 32.0167 -95.6075 148° Southeast 447 514 37,000  Level Fort Worth Center
01:45PM 31.9092 -95.5364 151° Southeast 447 514 37,000  Level Fort Worth Center
01:46PM 31.8017 -95.4603 149° Southeast 447 514 37,000  Level Fort Worth Center
01:48PM 31.5836 -95.3056 149° Southeast 448 516 37,000  Level Houston Center
01:49PM 31.4761 -95.2333 150° Southeast 448 516 37,000  Level Houston Center
01:50PM 31.3700 -95.1606 150° Southeast 446 513 37,000  Level Houston Center
01:51PM 31.2608 -95.0889 151° Southeast 450 518 37,000  Level Houston Center
01:52PM 31.1325 -95.0028 150° Southeast 449 517 37,000  Level Houston Center
01:53PM 31.0244 -94.9308 150° Southeast 451 519 37,000  Level Houston Center
01:55PM 30.9175 -94.8575 150° Southeast 452 520 37,000  Level Houston Center
01:56PM 30.8114 -94.7847 149° Southeast 449 517 37,000  Level Houston Center
01:57PM 30.6825 -94.6983 150° Southeast 447 514 37,000  Level Houston Center
01:58PM 30.5761 -94.6261 150° Southeast 446 513 37,000  Level Houston Center
01:59PM 30.4683 -94.5536 150° Southeast 447 514 37,000  Level Houston Center
02:00PM 30.3619 -94.4819 150° Southeast 448 516 37,000  Level Houston Center
02:01PM 30.2553 -94.4122 151° Southeast 444 511 37,000  Level Houston Center
02:02PM 30.1472 -94.3400 150° Southeast 447 514 37,000  Level Houston Center
02:03PM 30.0167 -94.2558 151° Southeast 450 518 37,000  Level Houston Center
02:04PM 29.9094 -94.1844 150° Southeast 448 516 37,000  Level Houston Center
02:05PM 29.8019 -94.1144 151° Southeast 446 513 37,000  Level Houston Center
02:06PM 29.6950 -94.0431 150° Southeast 447 514 37,000  Level Houston Center
02:07PM 29.5956 -93.9608 144° Southeast 444 511 37,000  Level Houston Center
02:08PM 29.4761 -93.8578 143° Southeast 447 514 37,000 -60 Level Houston Center
02:09PM 29.3764 -93.7719 143° Southeast 450 518 36,900  Descending Houston Center
02:10PM 29.2750 -93.6869 144° Southeast 452 520 37,000  Climbing Houston Center
02:11PM 29.1744 -93.6006 143° Southeast 454 522 37,000 -60 Level Houston Center
02:12PM 29.0725 -93.5142 143° Southeast 458 527 36,900 -60 Descending Houston Center
02:13PM 28.9506 -93.4122 144° Southeast 454 522 36,900  Level Houston Center
02:14PM 28.8497 -93.3261 143° Southeast 453 521 36,900  Level Houston Center
02:15PM 28.7486 -93.2408 144° Southeast 454 522 37,000  Climbing Houston Center
02:16PM 28.6472 -93.1572 144° Southeast 452 520 37,000  Level Houston Center
02:17PM 28.5458 -93.0717 143° Southeast 454 522 37,000 -60 Level Houston Center
02:18PM 28.4433 -92.9867 144° Southeast 456 525 36,900  Descending Houston Center
02:19PM 28.3208 -92.8833 143° Southeast 458 527 37,000  Climbing Houston Center
02:20PM 28.2181 -92.8000 144° Southeast 456 525 37,000  Level Houston Center
02:21PM 28.1153 -92.7147 144° Southeast 458 527 37,000  Level Houston Center
02:22PM 28.0131 -92.6292 144° Southeast 458 527 37,000  Level Houston Center
02:24PM 27.9089 -92.5461 145° Southeast 457 526 37,000  Level Houston Center
02:25PM 27.7869 -92.4444 144° Southeast 456 525 37,000  Level Houston Center
02:26PM 27.6836 -92.3617 145° Southeast 455 524 37,000  Level Houston Center
02:27PM 27.5806 -92.2789 145° Southeast 456 525 37,000  Level Houston Center
02:28PM 27.4767 -92.1947 144° Southeast 459 528 37,000  Level Houston Center
02:29PM 27.3733 -92.1106 144° Southeast 458 527 37,000 -60 Level Houston Center
02:30PM 27.2689 -92.0272 145° Southeast 460 529 36,900  Descending Houston Center
02:31PM 27.1442 -91.9242 144° Southeast 462 532 37,000 60 Climbing Houston Center
02:33PM 26.9725 -91.7847 144° Southeast  Level FlightAware Approximate
02:40PM 26.2841 -91.2313 145° Southeast  Level FlightAware Approximate
02:41PM 26.1852 -91.1534 145° Southeast  Level FlightAware Approximate
02:42PM 26.0863 -91.0756 145° Southeast  Level FlightAware Approximate
02:43PM 25.9873 -90.9979 145° Southeast  Level FlightAware Approximate
02:44PM 25.8883 -90.9204 145° Southeast  Level FlightAware Approximate
02:45PM 25.7892 -90.8430 145° Southeast  Level FlightAware Approximate
02:46PM 25.6901 -90.7657 145° Southeast  Level FlightAware Approximate
02:47PM 25.5910 -90.6886 145° Southeast  Level FlightAware Approximate
02:48PM 25.4918 -90.6116 145° Southeast  Level FlightAware Approximate
02:49PM 25.3926 -90.5347 145° Southeast  Level FlightAware Approximate
02:50PM 25.2933 -90.4579 145° Southeast  Level FlightAware Approximate
02:51PM 25.1940 -90.3813 145° Southeast  Level FlightAware Approximate
02:52PM 25.0947 -90.3048 145° Southeast  Level FlightAware Approximate
02:53PM 24.9953 -90.2284 145° Southeast  Level FlightAware Approximate
02:54PM 24.8959 -90.1522 145° Southeast  Level FlightAware Approximate
02:55PM 24.7964 -90.0760 145° Southeast  Level FlightAware Approximate
02:56PM 24.6969 -90.0000 145° Southeast  Level FlightAware Approximate
02:57PM 24.5974 -89.9241 145° Southeast  Level FlightAware Approximate
02:58PM 24.4981 -89.8481 138° Southeast  Level FlightAware Approximate
02:59PM 24.4005 -89.7695 145° Southeast  Level FlightAware Approximate
03:00PM 24.3013 -89.6933 145° Southeast  Level FlightAware Approximate
03:01PM 24.2000 -89.6205 148° Southeast  Level FlightAware Approximate
03:02PM 24.0976 -89.5496 148° Southeast  Level FlightAware Approximate
03:03PM 23.9968 -89.4762 145° Southeast  Level FlightAware Approximate
03:04PM 23.8973 -89.4007 145° Southeast  Level FlightAware Approximate
03:05PM 23.7978 -89.3252 145° Southeast  Level FlightAware Approximate
03:06PM 23.6983 -89.2499 145° Southeast  Level FlightAware Approximate
03:07PM 23.5987 -89.1747 145° Southeast  Level FlightAware Approximate
03:08PM 23.4991 -89.0995 145° Southeast  Level FlightAware Approximate
03:09PM 23.3994 -89.0246 145° Southeast  Level FlightAware Approximate
03:10PM 23.2997 -88.9497 145° Southeast  Level FlightAware Approximate
03:11PM 23.2000 -88.8749 145° Southeast  Level FlightAware Approximate
03:12PM 23.0996 -88.8012 146° Southeast  Level FlightAware Approximate
03:13PM 22.9990 -88.7280 146° Southeast  Level FlightAware Approximate
03:14PM 22.9002 -88.6520 144° Southeast  Level FlightAware Approximate
03:15PM 22.8018 -88.5754 144° Southeast  Level FlightAware Approximate
03:16PM 22.7033 -88.4989 144° Southeast  Level FlightAware Approximate
03:17PM 22.6021 -88.4270 147° Southeast  Level FlightAware Approximate
03:18PM 22.5000 -88.3564 147° Southeast  Level FlightAware Approximate
03:19PM 22.3997 -88.2831 145° Southeast  Level FlightAware Approximate
03:20PM 22.3002 -88.2085 145° Southeast  Level FlightAware Approximate
03:21PM 22.1983 -88.1377 148° Southeast  Level FlightAware Approximate
03:22PM 22.1085 -88.0515 133° Southeast  Level FlightAware Approximate
03:23PM 22.0263 -87.9555 133° Southeast  Level FlightAware Approximate
03:24PM 21.9437 -87.8600 136° Southeast  Level FlightAware Approximate
03:25PM 21.8569 -87.7690 136° Southeast  Level FlightAware Approximate
03:26PM 21.7700 -87.6781 136° Southeast  Level FlightAware Approximate
03:27PM 21.6831 -87.5874 136° Southeast  Level FlightAware Approximate
03:28PM 21.5961 -87.4967 136° Southeast  Level FlightAware Approximate
03:29PM 21.5144 -87.4006 132° Southeast  Level FlightAware Approximate
03:30PM 21.4292 -87.3083 134° Southeast  Level FlightAware Approximate
03:31PM 21.3450 -87.2148 134° Southeast  Level FlightAware Approximate
03:32PM 21.2579 -87.1246 137° Southeast  Level FlightAware Approximate
03:33PM 21.1756 -87.0301 126° Southeast  Level FlightAware Approximate
03:34PM 21.0894 -86.9394 137° Southeast  Level FlightAware Approximate
03:35PM 21.0365 -86.8771 137° Southeast  Level Estimated
03:36PM 21.0365 -86.8771 137° Southeast  Level Estimated
03:37PM 21.0365 -86.8771 137° Southeast  Level Estimated
03:38PM 21.0365 -86.8771 137° Southeast  Level Estimated
03:39PM 21.0365 -86.8771 137° Southeast  Level Estimated